Time;durP1;ratioP1;P1;durP2;ratioP2;P2;SDS_P1;SDS_P2;PMS_P1;PMS_P2;Temp;Humidity;BMP_temperature;BMP_pressure;BME280_temperature;BME280_humidity;BME280_pressure;Samples;Min_cycle;Max_cycle;Signal;HPM_P1;HPM_P2
2021/05/07 04:01:28;;;;;;;;;;;;;;;6.22;96.40;98941.10;1591546;88;20325;-68
2021/05/07 04:04:56;;;;;;;;;;;;;;;6.50;96.04;98942.92;1529968;93;20166;-68
2021/05/07 04:40:58;;;;;;;;;;;;;;;9.10;67.09;98941.55;1715264;83;20532;-73
2021/05/07 06:38:22;;;;;;;;;;;;;;;12.63;50.85;98940.41;1684488;84;20148;-70
2021/05/07 08:38:36;;;;;;;;;;;;;;;15.07;44.82;98832.12;1625766;79;87910;-71
2021/05/07 08:41:04;;;;;;;;;;;;;;;15.11;43.88;98826.91;1706727;83;20497;-70
2021/05/07 08:43:32;;;;;;;;;;;;;;;15.17;43.73;98825.16;1729720;82;21210;-70
2021/05/07 08:46:04;;;;;;;;;;;;;;;15.30;43.69;98826.24;1725944;83;20147;-70
2021/05/07 08:48:34;;;;;;;;;;;;;;;15.29;43.91;98821.16;1726067;82;20218;-70
2021/05/07 08:51:03;;;;;;;;;;;;;;;15.36;44.23;98814.23;1710655;82;20399;-70
2021/05/07 08:53:33;;;;;;;;;;;;;;;15.44;44.51;98802.69;1696760;84;20240;-70
2021/05/07 08:56:06;;;;;;;;;;;;;;;15.60;44.20;98813.16;1696272;83;21237;-71
2021/05/07 08:58:36;;;;;;;;;;;;;;;15.62;43.55;98794.17;1696766;84;20228;-71
2021/05/07 09:01:05;;;;;;;;;;;;;;;15.72;43.21;98790.45;1696888;84;20510;-72
2021/05/07 09:03:44;;;;;;;;;;;;;;;15.85;43.46;98784.22;1696323;84;20320;-71
2021/05/07 09:06:39;;;;;;;;;;;;;;;15.95;43.00;98777.75;1852288;77;20732;-70
2021/05/07 09:09:17;;;;;;;;;;;;;;;16.12;42.79;98770.30;1820816;78;20233;-67
2021/05/07 09:11:46;;;;;;;;;;;;;;;16.20;42.02;98774.96;1820997;78;21187;-70
2021/05/07 09:14:18;;;;;;;;;;;;;;;16.18;42.19;98773.67;1820973;78;20216;-70
2021/05/07 09:16:52;;;;;;;;;;;;;;;16.14;41.04;98761.86;1821457;78;20227;-71
2021/05/07 09:19:24;;;;;;;;;;;;;;;16.10;40.30;98746.02;1819125;78;20219;-68
2021/05/07 09:21:53;;;;;;;;;;;;;;;16.07;40.04;98754.98;1768299;80;20213;-71
2021/05/07 09:24:36;;;;;;;;;;;;;;;16.07;40.00;98748.78;1764267;79;22479;-69
2021/05/07 09:27:08;;;;;;;;;;;;;;;16.37;40.17;98752.59;1794059;80;20169;-71
2021/05/07 09:29:37;;;;;;;;;;;;;;;16.42;39.69;98752.46;1793402;80;20551;-70
2021/05/07 09:32:05;;;;;;;;;;;;;;;16.57;39.49;98754.52;1745876;81;20686;-69
2021/05/07 09:34:36;;;;;;;;;;;;;;;16.59;40.16;98749.03;1781016;80;20523;-70
2021/05/07 09:37:22;;;;;;;;;;;;;;;16.40;39.67;98720.82;1780781;80;22269;-72
2021/05/07 09:39:55;;;;;;;;;;;;;;;16.30;40.72;98736.00;1780294;80;20728;-70
2021/05/07 09:42:22;;;;;;;;;;;;;;;16.03;40.25;98739.67;1721039;82;20285;-71
2021/05/07 09:44:50;;;;;;;;;;;;;;;15.92;40.67;98724.78;1782126;80;20214;-69
2021/05/07 09:47:18;;;;;;;;;;;;;;;15.88;40.45;98735.45;1781561;80;20289;-69
2021/05/07 09:49:47;;;;;;;;;;;;;;;15.84;41.45;98731.19;1782360;80;21436;-69
2021/05/07 09:52:15;;;;;;;;;;;;;;;15.82;40.48;98718.52;1782628;80;20504;-68
2021/05/07 09:54:50;;;;;;;;;;;;;;;15.86;40.99;98711.95;1782247;80;20210;-71
2021/05/07 09:57:19;;;;;;;;;;;;;;;15.88;41.55;98713.80;1782454;80;20314;-70
2021/05/07 09:59:48;;;;;;;;;;;;;;;15.91;41.92;98715.88;1782344;80;20313;-69
2021/05/07 10:02:16;;;;;;;;;;;;;;;15.96;42.06;98718.45;1779782;79;21195;-68
2021/05/07 10:04:44;;;;;;;;;;;;;;;15.94;42.57;98722.02;1773807;80;20227;-67
2021/05/07 10:07:13;;;;;;;;;;;;;;;15.94;42.87;98719.31;1773965;81;20156;-68
2021/05/07 10:09:40;;;;;;;;;;;;;;;15.97;43.07;98720.06;1741792;82;20218;-69
2021/05/07 10:12:09;;;;;;;;;;;;;;;15.86;43.51;98723.56;1741792;82;20150;-69
2021/05/07 10:14:42;;;;;;;;;;;;;;;15.90;43.80;98723.77;1774197;81;22070;-71
2021/05/07 10:17:10;;;;;;;;;;;;;;;15.89;43.01;98718.64;1741495;82;20182;-68
2021/05/07 10:19:45;;;;;;;;;;;;;;;16.04;44.14;98718.25;1773672;81;20140;-68
2021/05/07 10:22:14;;;;;;;;;;;;;;;16.04;43.56;98719.05;1740985;82;20792;-70
2021/05/07 10:24:42;;;;;;;;;;;;;;;16.12;44.23;98713.98;1748636;82;20246;-69
2021/05/07 10:27:17;;;;;;;;;;;;;;;16.23;44.25;98713.98;1775749;80;21290;-70
2021/05/07 10:29:57;;;;;;;;;;;;;;;16.38;44.58;98708.14;1775815;80;20514;-69
2021/05/07 10:32:33;;;;;;;;;;;;;;;16.27;43.82;98700.86;1775589;80;20215;-69
2021/05/07 10:35:06;;;;;;;;;;;;;;;16.18;44.11;98666.73;1775400;80;20254;-69
2021/05/07 10:37:42;;;;;;;;;;;;;;;16.27;44.55;98706.84;1775505;80;20593;-71
2021/05/07 10:40:12;;;;;;;;;;;;;;;16.25;44.52;98696.88;1775303;80;21288;-71
2021/05/07 10:42:40;;;;;;;;;;;;;;;16.29;44.18;98693.77;1745765;80;20548;-71
2021/05/07 10:45:09;;;;;;;;;;;;;;;16.37;44.47;98697.08;1779133;79;21197;-70
2021/05/07 10:47:37;;;;;;;;;;;;;;;16.38;44.09;98682.42;1784999;80;20238;-70
2021/05/07 10:50:16;;;;;;;;;;;;;;;16.39;44.50;98675.08;1785210;80;20215;-71
2021/05/07 10:52:43;;;;;;;;;;;;;;;16.39;45.66;98666.42;1785404;80;21422;-69
2021/05/07 10:55:12;;;;;;;;;;;;;;;16.45;44.87;98679.27;1771595;79;20156;-71
2021/05/07 10:57:42;;;;;;;;;;;;;;;16.56;44.79;98677.05;1754250;79;20211;-69
2021/05/07 11:00:15;;;;;;;;;;;;;;;16.59;44.20;98660.20;1780775;79;20271;-74
2021/05/07 11:02:54;;;;;;;;;;;;;;;16.50;44.44;98660.95;1799681;79;20232;-72
2021/05/07 11:05:39;;;;;;;;;;;;;;;16.49;45.12;98642.32;1805924;79;22110;-73
2021/05/07 11:08:07;;;;;;;;;;;;;;;16.47;45.43;98624.23;1805937;79;20264;-71
2021/05/07 11:10:35;;;;;;;;;;;;;;;16.41;46.02;98656.09;1805094;79;20578;-73
2021/05/07 11:13:07;;;;;;;;;;;;;;;16.51;46.11;98648.20;1805965;79;20240;-73
2021/05/07 11:15:56;;;;;;;;;;;;;;;16.50;46.44;98638.48;1806140;79;20479;-69
2021/05/07 11:18:32;;;;;;;;;;;;;;;16.42;46.46;98626.52;1699838;84;21249;-71
2021/05/07 11:21:12;;;;;;;;;;;;;;;16.32;47.25;98647.13;1688652;83;20301;-74
2021/05/07 11:23:48;;;;;;;;;;;;;;;16.33;47.34;98640.59;1683304;84;20304;-73
2021/05/07 11:26:22;;;;;;;;;;;;;;;16.31;48.48;98644.72;1716111;83;20582;-73
2021/05/07 11:28:55;;;;;;;;;;;;;;;16.22;48.72;98636.02;1673070;84;20294;-73
2021/05/07 11:31:27;;;;;;;;;;;;;;;16.17;47.76;98615.04;1695464;83;21208;-71
2021/05/07 11:33:55;;;;;;;;;;;;;;;16.25;47.82;98623.20;1692464;83;20246;-73
2021/05/07 11:36:23;;;;;;;;;;;;;;;16.37;46.93;98605.57;1692805;84;20582;-72
2021/05/07 11:38:51;;;;;;;;;;;;;;;16.41;47.51;98603.81;1692609;83;20288;-72
2021/05/07 11:41:23;;;;;;;;;;;;;;;16.45;47.10;98592.59;1692585;83;20273;-71
2021/05/07 11:43:54;;;;;;;;;;;;;;;16.41;47.82;98586.20;1693441;84;21343;-70
2021/05/07 11:46:23;;;;;;;;;;;;;;;16.39;47.35;98583.01;1692817;84;20991;-71
2021/05/07 11:48:51;;;;;;;;;;;;;;;16.42;47.56;98576.42;1693289;84;20575;-72
2021/05/07 11:51:23;;;;;;;;;;;;;;;16.42;48.66;98570.21;1692894;83;20527;-71
2021/05/07 11:53:55;;;;;;;;;;;;;;;16.46;49.49;98563.85;1693490;84;20293;-71
2021/05/07 11:56:26;;;;;;;;;;;;;;;16.46;49.08;98556.26;1692960;84;21387;-70
2021/05/07 11:59:01;;;;;;;;;;;;;;;16.46;51.30;98558.44;1692435;84;20732;-72
2021/05/07 12:01:37;;;;;;;;;;;;;;;16.48;50.29;98554.03;1692863;84;20500;-70
2021/05/07 12:04:08;;;;;;;;;;;;;;;16.45;51.50;98540.58;1692940;84;20221;-70
2021/05/07 12:06:45;;;;;;;;;;;;;;;16.40;51.07;98533.95;1693099;84;20234;-72
2021/05/07 12:09:32;;;;;;;;;;;;;;;16.34;50.03;98529.83;1725189;83;20181;-72
2021/05/07 12:12:03;;;;;;;;;;;;;;;16.26;50.40;98530.59;1723458;83;20647;-73
2021/05/07 12:14:55;;;;;;;;;;;;;;;16.20;51.94;98523.74;1724418;83;20140;-70
2021/05/07 12:17:24;;;;;;;;;;;;;;;16.16;51.36;98506.53;1794794;80;20225;-74
2021/05/07 12:20:05;;;;;;;;;;;;;;;16.17;51.62;98503.52;1794251;79;20289;-73
2021/05/07 12:22:34;;;;;;;;;;;;;;;16.18;52.59;98492.13;1792548;79;21384;-72
2021/05/07 12:25:22;;;;;;;;;;;;;;;16.18;53.37;98490.77;1771054;80;20130;-72
2021/05/07 12:28:24;;;;;;;;;;;;;;;16.22;54.15;98484.97;1771794;80;20127;-69
2021/05/07 12:31:30;;;;;;;;;;;;;;;16.20;55.04;98477.72;1618983;87;20271;-72
2021/05/07 12:34:27;;;;;;;;;;;;;;;16.26;55.27;98475.08;1845919;76;20273;-70
2021/05/07 12:37:07;;;;;;;;;;;;;;;16.22;55.01;98476.29;1824594;77;20144;-71
2021/05/07 12:39:57;;;;;;;;;;;;;;;16.25;55.70;98472.94;1822848;78;20606;-69
2021/05/07 12:42:28;;;;;;;;;;;;;;;16.26;56.01;98473.73;1823866;78;20202;-72
2021/05/07 12:45:07;;;;;;;;;;;;;;;16.26;56.80;98463.69;1840165;77;20120;-72
2021/05/07 12:47:46;;;;;;;;;;;;;;;16.34;56.92;98458.59;1823427;78;20207;-71
2021/05/07 12:50:36;;;;;;;;;;;;;;;16.46;57.23;98465.00;1822728;77;20249;-73
2021/05/07 12:53:12;;;;;;;;;;;;;;;16.67;57.24;98465.12;1855688;76;21183;-72
2021/05/07 12:55:58;;;;;;;;;;;;;;;16.83;56.87;98455.98;1843137;77;20146;-72
2021/05/07 13:40:52;;;;;;;;;;;;;;;17.29;53.79;98439.48;1711171;79;88225;-69
2021/05/07 13:43:22;;;;;;;;;;;;;;;16.69;62.25;98452.06;1700846;84;20294;-73
2021/05/07 13:45:51;;;;;;;;;;;;;;;16.41;63.10;98444.03;1679632;85;20259;-73
2021/05/07 13:48:19;;;;;;;;;;;;;;;16.32;64.29;98440.55;1696390;84;20546;-73
2021/05/07 13:50:49;;;;;;;;;;;;;;;16.26;65.40;98430.41;1704698;84;20295;-74
2021/05/07 13:53:17;;;;;;;;;;;;;;;16.23;67.40;98441.88;1696519;83;22220;-74
2021/05/07 13:55:46;;;;;;;;;;;;;;;16.18;67.51;98432.56;1698297;84;20257;-73
2021/05/07 13:58:13;;;;;;;;;;;;;;;16.17;69.28;98430.42;1703184;83;20232;-72
2021/05/07 14:00:41;;;;;;;;;;;;;;;16.19;68.88;98437.67;1704760;84;20196;-72
2021/05/07 14:03:09;;;;;;;;;;;;;;;16.07;69.60;98435.59;1703522;83;20260;-72
2021/05/07 14:05:42;;;;;;;;;;;;;;;16.03;69.64;98429.77;1707870;83;21511;-73
2021/05/07 14:08:10;;;;;;;;;;;;;;;16.02;69.92;98439.81;1697960;82;20140;-72
2021/05/07 14:10:37;;;;;;;;;;;;;;;16.05;71.18;98438.37;1706882;84;20506;-72
2021/05/07 14:13:06;;;;;;;;;;;;;;;16.09;71.78;98432.55;1707422;84;20590;-72
2021/05/07 14:15:37;;;;;;;;;;;;;;;16.13;73.60;98424.61;1701412;83;20539;-73
2021/05/07 14:18:15;;;;;;;;;;;;;;;16.07;73.99;98423.97;1697235;83;21215;-72
2021/05/07 14:20:43;;;;;;;;;;;;;;;15.99;74.61;98426.09;1690702;84;20331;-73
2021/05/07 14:23:12;;;;;;;;;;;;;;;15.96;75.89;98426.17;1703247;83;20116;-72
2021/05/07 14:25:40;;;;;;;;;;;;;;;15.96;78.61;98422.11;1701550;83;20169;-73
2021/05/07 14:28:08;;;;;;;;;;;;;;;16.07;79.72;98418.56;1704588;83;20287;-72
2021/05/07 14:30:36;;;;;;;;;;;;;;;16.22;78.44;98415.37;1700485;83;22195;-72
2021/05/07 14:33:04;;;;;;;;;;;;;;;16.26;77.07;98420.94;1707256;84;20281;-71
2021/05/07 14:35:33;;;;;;;;;;;;;;;16.29;77.04;98421.11;1702875;84;20597;-71
2021/05/07 14:38:00;;;;;;;;;;;;;;;16.39;74.79;98422.70;1705912;83;20506;-71
2021/05/07 14:40:28;;;;;;;;;;;;;;;16.47;71.75;98417.83;1709643;83;20247;-71
2021/05/07 14:42:56;;;;;;;;;;;;;;;16.57;71.85;98425.39;1718246;83;21372;-71
2021/05/07 14:45:25;;;;;;;;;;;;;;;16.56;71.62;98413.77;1717859;83;20717;-72
2021/05/07 14:47:55;;;;;;;;;;;;;;;16.67;72.29;98419.64;1718082;83;20546;-72
2021/05/07 14:50:25;;;;;;;;;;;;;;;16.68;75.06;98417.15;1717804;83;20586;-71
2021/05/07 14:52:56;;;;;;;;;;;;;;;16.59;77.89;98408.27;1717685;83;20264;-70
2021/05/07 14:55:26;;;;;;;;;;;;;;;16.54;79.46;98405.72;1717937;83;21211;-72
2021/05/07 14:57:53;;;;;;;;;;;;;;;16.88;78.42;98403.53;1717615;83;20256;-71
2021/05/07 15:00:21;;;;;;;;;;;;;;;17.06;75.13;98386.08;1717899;83;20236;-72
2021/05/07 15:02:49;;;;;;;;;;;;;;;16.90;71.90;98389.08;1664960;84;20242;-72
2021/05/07 15:05:17;;;;;;;;;;;;;;;16.83;73.88;98384.17;1685154;85;20257;-72
2021/05/07 15:07:46;;;;;;;;;;;;;;;16.76;72.72;98373.00;1685466;85;21376;-72
2021/05/07 15:10:13;;;;;;;;;;;;;;;16.87;70.94;98378.33;1685286;85;20233;-71
2021/05/07 15:12:44;;;;;;;;;;;;;;;17.13;70.59;98378.80;1684957;85;20246;-74
2021/05/07 15:15:14;;;;;;;;;;;;;;;17.17;71.66;98381.08;1685375;85;20622;-71
2021/05/07 15:17:43;;;;;;;;;;;;;;;17.04;70.97;98365.27;1686171;84;20270;-71
2021/05/07 15:20:12;;;;;;;;;;;;;;;16.98;72.37;98354.92;1642295;85;21383;-73
2021/05/07 15:22:43;;;;;;;;;;;;;;;16.80;71.01;98345.51;1695996;83;20185;-72
2021/05/07 15:25:11;;;;;;;;;;;;;;;16.58;72.03;98353.83;1709301;82;20527;-71
2021/05/07 15:27:39;;;;;;;;;;;;;;;16.52;72.52;98344.30;1698296;84;20541;-71
2021/05/07 15:30:08;;;;;;;;;;;;;;;16.52;72.63;98348.37;1685662;85;20233;-69
2021/05/07 15:32:38;;;;;;;;;;;;;;;16.45;73.01;98348.28;1685309;84;21434;-71
2021/05/07 15:35:07;;;;;;;;;;;;;;;16.33;73.88;98344.65;1685706;85;20277;-71
2021/05/07 15:37:36;;;;;;;;;;;;;;;16.31;74.16;98346.31;1685715;84;20243;-71
2021/05/07 15:40:07;;;;;;;;;;;;;;;16.33;73.88;98345.44;1683530;82;20254;-72
2021/05/07 15:42:37;;;;;;;;;;;;;;;16.33;74.69;98349.50;1675903;85;20250;-71
2021/05/07 15:45:08;;;;;;;;;;;;;;;16.21;74.44;98346.65;1685651;84;22344;-71
2021/05/07 15:47:36;;;;;;;;;;;;;;;16.10;74.68;98347.55;1709981;84;20133;-71
2021/05/07 15:50:07;;;;;;;;;;;;;;;15.99;73.93;98343.55;1710409;84;20531;-72
2021/05/07 15:52:35;;;;;;;;;;;;;;;15.88;75.34;98348.50;1709589;83;20181;-73
2021/05/07 15:55:07;;;;;;;;;;;;;;;15.83;75.69;98355.42;1710164;84;20204;-72
2021/05/07 15:57:35;;;;;;;;;;;;;;;15.83;75.42;98356.78;1710304;84;21221;-72
2021/05/07 16:00:05;;;;;;;;;;;;;;;15.77;75.74;98353.41;1710132;84;20392;-71
2021/05/07 16:02:36;;;;;;;;;;;;;;;15.72;76.35;98356.27;1709641;83;20157;-73
2021/05/07 16:05:05;;;;;;;;;;;;;;;15.64;77.18;98349.70;1710042;84;20300;-73
2021/05/07 16:07:35;;;;;;;;;;;;;;;15.55;77.91;98354.30;1710162;84;20264;-72
2021/05/07 16:10:05;;;;;;;;;;;;;;;15.49;78.78;98356.93;1709982;84;21212;-73
2021/05/07 16:12:35;;;;;;;;;;;;;;;15.44;79.61;98354.37;1707949;84;20244;-72
2021/05/07 16:15:07;;;;;;;;;;;;;;;15.43;80.14;98357.64;1707923;84;20313;-71
2021/05/07 16:17:36;;;;;;;;;;;;;;;15.40;80.60;98362.87;1708487;84;20523;-71
2021/05/07 16:20:05;;;;;;;;;;;;;;;15.35;82.19;98359.75;1707172;84;20269;-72
2021/05/07 16:22:35;;;;;;;;;;;;;;;15.31;82.56;98366.09;1681013;85;22154;-70
2021/05/07 16:25:04;;;;;;;;;;;;;;;15.25;83.53;98369.50;1683388;85;20470;-69
2021/05/07 16:27:32;;;;;;;;;;;;;;;15.22;84.01;98374.19;1676910;84;20274;-72
2021/05/07 16:30:00;;;;;;;;;;;;;;;15.17;84.82;98373.78;1677531;85;20328;-71
2021/05/07 16:32:28;;;;;;;;;;;;;;;15.16;86.75;98375.42;1680365;85;20295;-72
2021/05/07 16:35:00;;;;;;;;;;;;;;;15.14;87.82;98378.46;1683874;85;21275;-71
2021/05/07 16:37:30;;;;;;;;;;;;;;;15.14;88.47;98378.99;1685892;85;20260;-70
2021/05/07 16:39:58;;;;;;;;;;;;;;;15.08;90.78;98373.50;1686017;83;20275;-70
2021/05/07 16:42:27;;;;;;;;;;;;;;;15.07;91.74;98386.78;1685550;85;20626;-72
2021/05/07 16:44:55;;;;;;;;;;;;;;;15.02;93.00;98391.77;1683453;85;20307;-71
2021/05/07 16:47:23;;;;;;;;;;;;;;;14.95;95.30;98394.11;1684007;85;20728;-70
2021/05/07 16:49:51;;;;;;;;;;;;;;;14.91;96.96;98403.94;1683386;85;20165;-71
2021/05/07 16:52:19;;;;;;;;;;;;;;;14.84;98.58;98411.12;1672797;85;20299;-71
2021/05/07 16:54:51;;;;;;;;;;;;;;;14.77;100.00;98411.58;1682017;84;20169;-72
2021/05/07 16:57:21;;;;;;;;;;;;;;;14.76;100.00;98417.28;1683191;84;20240;-72
2021/05/07 16:59:50;;;;;;;;;;;;;;;14.69;100.00;98402.86;1683646;85;21814;-69
2021/05/07 17:02:18;;;;;;;;;;;;;;;14.67;100.00;98390.77;1683411;85;20275;-70
2021/05/07 17:04:48;;;;;;;;;;;;;;;14.63;100.00;98399.27;1683425;85;20180;-70
2021/05/07 17:07:17;;;;;;;;;;;;;;;14.60;100.00;98393.92;1683893;84;20196;-70
2021/05/07 17:09:46;;;;;;;;;;;;;;;14.57;100.00;98398.57;1679834;85;20253;-69
2021/05/07 17:12:16;;;;;;;;;;;;;;;14.54;100.00;98392.45;1677527;85;20329;-71
2021/05/07 17:14:44;;;;;;;;;;;;;;;14.54;100.00;98401.89;1677364;85;20295;-72
2021/05/07 17:17:12;;;;;;;;;;;;;;;14.53;100.00;98400.28;1677958;85;20613;-74
2021/05/07 17:19:40;;;;;;;;;;;;;;;14.54;100.00;98401.89;1678403;85;20250;-73
2021/05/07 17:22:13;;;;;;;;;;;;;;;14.51;100.00;98404.62;1685343;84;20188;-71
2021/05/07 17:24:41;;;;;;;;;;;;;;;14.49;90.81;98401.43;1674426;84;22507;-73
2021/05/07 17:27:10;;;;;;;;;;;;;;;14.54;85.93;98401.33;1666613;85;20247;-72
2021/05/07 17:29:39;;;;;;;;;;;;;;;14.58;84.69;98409.08;1671335;85;20262;-71
2021/05/07 17:32:07;;;;;;;;;;;;;;;14.55;82.43;98411.05;1663949;85;20708;-72
2021/05/07 17:34:36;;;;;;;;;;;;;;;14.55;80.43;98414.27;1663670;85;20542;-72
2021/05/07 17:37:04;;;;;;;;;;;;;;;14.55;78.33;98411.58;1659290;84;21477;-71
2021/05/07 17:39:34;;;;;;;;;;;;;;;14.54;77.59;98411.34;1658822;85;20627;-73
2021/05/07 17:42:05;;;;;;;;;;;;;;;14.50;77.66;98415.20;1629292;86;20251;-71
2021/05/07 17:44:33;;;;;;;;;;;;;;;14.45;78.81;98419.34;1649038;87;20557;-73
2021/05/07 17:47:04;;;;;;;;;;;;;;;14.29;79.51;98412.17;1649971;87;20301;-71
2021/05/07 17:49:31;;;;;;;;;;;;;;;14.25;80.59;98411.17;1676824;85;21232;-71
2021/05/07 17:51:59;;;;;;;;;;;;;;;14.15;82.42;98410.06;1695121;83;20755;-71
2021/05/07 17:54:29;;;;;;;;;;;;;;;14.07;83.74;98417.55;1681187;84;20248;-72
2021/05/07 17:56:56;;;;;;;;;;;;;;;13.98;85.61;98412.62;1697919;84;20161;-73
2021/05/07 17:59:25;;;;;;;;;;;;;;;13.81;88.84;98423.48;1685302;85;20248;-73
2021/05/07 18:01:54;;;;;;;;;;;;;;;13.61;92.08;98422.02;1685886;85;21387;-72
2021/05/07 18:04:22;;;;;;;;;;;;;;;13.44;95.34;98421.83;1682691;85;20292;-72
2021/05/07 18:06:51;;;;;;;;;;;;;;;13.33;97.64;98436.59;1687653;84;20515;-71
2021/05/07 18:09:24;;;;;;;;;;;;;;;13.14;100.00;98419.94;1684346;84;20196;-70
2021/05/07 18:11:57;;;;;;;;;;;;;;;13.03;100.00;98422.56;1682259;85;20285;-72
2021/05/07 18:14:26;;;;;;;;;;;;;;;12.85;100.00;98429.06;1683238;85;21373;-72
2021/05/07 18:16:56;;;;;;;;;;;;;;;12.73;100.00;98429.29;1685132;84;20283;-72
2021/05/07 18:19:28;;;;;;;;;;;;;;;12.56;100.00;98442.73;1633042;87;20495;-72
2021/05/07 18:21:56;;;;;;;;;;;;;;;12.42;100.00;98437.32;1648897;85;20242;-73
2021/05/07 18:24:24;;;;;;;;;;;;;;;12.25;100.00;98446.46;1658224;85;20287;-72
2021/05/07 18:26:54;;;;;;;;;;;;;;;12.09;100.00;98445.07;1682761;85;20756;-73
2021/05/07 18:29:27;;;;;;;;;;;;;;;11.93;100.00;98446.63;1683673;84;20260;-76
2021/05/07 18:31:57;;;;;;;;;;;;;;;11.76;100.00;98444.39;1682388;84;20236;-72
2021/05/07 18:34:26;;;;;;;;;;;;;;;11.60;100.00;98442.98;1680739;85;20581;-72
2021/05/07 18:36:55;;;;;;;;;;;;;;;11.51;100.00;98442.00;1681652;84;20223;-71
2021/05/07 18:39:31;;;;;;;;;;;;;;;11.41;100.00;98444.27;1679895;85;21919;-75
2021/05/07 18:42:01;;;;;;;;;;;;;;;11.32;100.00;98446.00;1700497;84;20251;-74
2021/05/07 18:44:33;;;;;;;;;;;;;;;11.23;100.00;98438.30;1657373;86;20252;-74
2021/05/07 18:47:05;;;;;;;;;;;;;;;11.15;100.00;98440.52;1656808;86;20292;-73
2021/05/07 18:49:33;;;;;;;;;;;;;;;11.12;100.00;98442.44;1657139;86;20268;-73
2021/05/07 18:52:02;;;;;;;;;;;;;;;11.08;100.00;98441.95;1657536;86;21290;-73
2021/05/07 18:54:31;;;;;;;;;;;;;;;11.03;100.00;98436.63;1657362;86;20231;-72
2021/05/07 18:57:05;;;;;;;;;;;;;;;10.97;100.00;98433.72;1657025;86;20527;-73
2021/05/07 18:59:38;;;;;;;;;;;;;;;10.92;100.00;98432.67;1657111;85;20422;-74
2021/05/07 19:02:06;;;;;;;;;;;;;;;10.89;100.00;98441.85;1657559;86;20303;-72
2021/05/07 19:04:38;;;;;;;;;;;;;;;10.87;100.00;98447.48;1659735;85;21383;-72
2021/05/07 19:07:06;;;;;;;;;;;;;;;10.83;100.00;98449.16;1665900;85;20238;-73
2021/05/07 19:09:35;;;;;;;;;;;;;;;10.80;100.00;98445.67;1671577;85;20218;-73
2021/05/07 19:12:04;;;;;;;;;;;;;;;10.76;100.00;98443.86;1681008;85;20284;-72
2021/05/07 19:14:34;;;;;;;;;;;;;;;10.73;100.00;98445.23;1685122;85;20305;-74
2021/05/07 19:17:08;;;;;;;;;;;;;;;10.71;100.00;98450.06;1683666;83;21220;-72
2021/05/07 19:19:37;;;;;;;;;;;;;;;10.66;100.00;98444.20;1671467;85;20302;-72
2021/05/07 19:22:06;;;;;;;;;;;;;;;10.64;100.00;98443.67;1701493;84;20165;-73
2021/05/07 19:24:34;;;;;;;;;;;;;;;10.61;100.00;98438.87;1709387;84;20683;-74
2021/05/07 19:27:02;;;;;;;;;;;;;;;10.60;100.00;98437.80;1708998;84;20295;-73
2021/05/07 19:29:31;;;;;;;;;;;;;;;10.59;100.00;98436.22;1709109;84;22706;-74
2021/05/07 19:32:00;;;;;;;;;;;;;;;10.57;100.00;98438.37;1708726;83;20133;-74
2021/05/07 19:34:28;;;;;;;;;;;;;;;10.54;100.00;98426.87;1688869;84;21024;-74
2021/05/07 19:36:57;;;;;;;;;;;;;;;10.52;100.00;98417.75;1708505;84;20510;-72
2021/05/07 19:39:25;;;;;;;;;;;;;;;10.48;100.00;98420.72;1709058;84;20498;-75
2021/05/07 19:41:56;;;;;;;;;;;;;;;10.47;100.00;98425.30;1692644;84;21231;-75
2021/05/07 19:44:28;;;;;;;;;;;;;;;10.46;100.00;98423.70;1679700;85;20578;-75
2021/05/07 19:46:56;;;;;;;;;;;;;;;10.46;100.00;98428.24;1683543;84;20228;-75
2021/05/07 19:49:26;;;;;;;;;;;;;;;10.47;100.00;98425.84;1674793;85;20282;-74
2021/05/07 19:51:54;;;;;;;;;;;;;;;10.45;100.00;98419.40;1682319;85;20228;-72
2021/05/07 19:54:23;;;;;;;;;;;;;;;10.43;100.00;98411.38;1683269;85;21206;-73
2021/05/07 19:56:52;;;;;;;;;;;;;;;10.46;100.00;98414.31;1682442;84;20299;-74
2021/05/07 19:59:22;;;;;;;;;;;;;;;10.49;100.00;98408.92;1676564;84;20168;-72
2021/05/07 20:01:50;;;;;;;;;;;;;;;10.50;100.00;98409.97;1656016;85;20266;-73
2021/05/07 20:04:20;;;;;;;;;;;;;;;10.49;100.00;98412.95;1677009;84;20240;-73
2021/05/07 20:06:52;;;;;;;;;;;;;;;10.49;100.00;98422.34;1686929;84;21124;-73
2021/05/07 20:09:22;;;;;;;;;;;;;;;10.48;100.00;98417.52;1633833;85;20313;-74
2021/05/07 20:11:50;;;;;;;;;;;;;;;10.48;100.00;98419.38;1662015;85;20246;-74
2021/05/07 20:14:18;;;;;;;;;;;;;;;10.49;100.00;98415.09;1669122;85;20294;-74
2021/05/07 20:16:46;;;;;;;;;;;;;;;10.50;100.00;98405.94;1672521;85;20270;-73
2021/05/07 20:19:21;;;;;;;;;;;;;;;10.50;100.00;98409.17;1684833;84;20260;-71
2021/05/07 20:21:49;;;;;;;;;;;;;;;10.45;100.00;98419.40;1660772;84;20601;-74
2021/05/07 20:24:23;;;;;;;;;;;;;;;10.42;100.00;98411.12;1688513;84;20303;-71
2021/05/07 20:26:52;;;;;;;;;;;;;;;10.41;100.00;98418.89;1607728;87;20263;-71
2021/05/07 20:29:20;;;;;;;;;;;;;;;10.40;100.00;98422.13;1623569;88;20517;-72
2021/05/07 20:31:48;;;;;;;;;;;;;;;10.41;100.00;98424.27;1612609;86;22392;-72
2021/05/07 20:34:24;;;;;;;;;;;;;;;10.39;100.00;98421.08;1601028;88;20233;-73
2021/05/07 20:37:03;;;;;;;;;;;;;;;10.36;100.00;98421.07;1704027;83;20557;-72
2021/05/07 20:39:29;;;;;;;;;;;;;;;10.34;100.00;98411.19;1676316;85;20260;-73
2021/05/07 20:42:15;;;;;;;;;;;;;;;10.32;100.00;98413.34;1685086;84;20253;-73
2021/05/07 20:44:46;;;;;;;;;;;;;;;10.31;100.00;98414.41;1731116;83;21250;-72
2021/05/07 20:47:13;;;;;;;;;;;;;;;10.30;100.00;98411.48;1720535;83;20150;-71
2021/05/07 20:49:42;;;;;;;;;;;;;;;10.28;100.00;98414.42;1681073;85;20260;-73
2021/05/07 20:52:10;;;;;;;;;;;;;;;10.29;100.00;98413.91;1670031;86;20122;-72
2021/05/07 20:54:38;;;;;;;;;;;;;;;10.29;100.00;98416.05;1676083;84;20158;-73
2021/05/07 20:57:06;;;;;;;;;;;;;;;10.30;100.00;98414.95;1691839;84;21266;-73
2021/05/07 20:59:33;;;;;;;;;;;;;;;10.29;100.00;98419.27;1719425;83;20138;-71
2021/05/07 21:02:03;;;;;;;;;;;;;;;10.30;100.00;98417.64;1681090;85;20332;-72
2021/05/07 21:04:35;;;;;;;;;;;;;;;10.31;100.00;98430.50;1678854;84;20495;-73
2021/05/07 21:07:03;;;;;;;;;;;;;;;10.29;100.00;98435.37;1731226;83;20118;-71
2021/05/07 21:09:32;;;;;;;;;;;;;;;10.28;100.00;98445.81;1731508;83;22077;-70
2021/05/07 21:12:07;;;;;;;;;;;;;;;10.27;100.00;98449.56;1719014;83;20818;-71
2021/05/07 21:14:37;;;;;;;;;;;;;;;10.25;100.00;98446.35;1718232;83;20495;-71
2021/05/07 21:17:08;;;;;;;;;;;;;;;10.23;100.00;98448.50;1720636;83;20126;-72
2021/05/07 21:19:37;;;;;;;;;;;;;;;10.23;100.00;98456.55;1720635;83;20238;-71
2021/05/07 21:22:05;;;;;;;;;;;;;;;10.22;100.00;98456.30;1720705;83;22260;-71
2021/05/07 21:24:33;;;;;;;;;;;;;;;10.22;100.00;98463.80;1711761;83;20247;-71
2021/05/07 21:27:01;;;;;;;;;;;;;;;10.18;100.00;98458.72;1690338;84;20161;-71
2021/05/07 21:29:29;;;;;;;;;;;;;;;10.17;100.00;98461.70;1690335;85;20243;-71
2021/05/07 21:31:59;;;;;;;;;;;;;;;10.12;100.00;98454.48;1690489;84;20156;-71
2021/05/07 21:34:27;;;;;;;;;;;;;;;10.13;100.00;98449.91;1692136;83;21388;-71
2021/05/07 21:36:55;;;;;;;;;;;;;;;10.14;100.00;98452.30;1692637;82;20237;-71
2021/05/07 21:39:23;;;;;;;;;;;;;;;10.13;100.00;98448.57;1700603;84;20168;-71
2021/05/07 21:41:53;;;;;;;;;;;;;;;10.11;100.00;98451.52;1693849;84;20174;-71
2021/05/07 21:44:20;;;;;;;;;;;;;;;10.08;100.00;98454.22;1731369;83;20231;-70
2021/05/07 21:46:48;;;;;;;;;;;;;;;10.07;100.00;98451.28;1667992;84;22700;-71
2021/05/07 21:49:17;;;;;;;;;;;;;;;10.07;100.00;98457.20;1670941;86;20268;-71
2021/05/07 21:51:45;;;;;;;;;;;;;;;10.05;100.00;98452.09;1664439;86;20149;-72
2021/05/07 21:54:13;;;;;;;;;;;;;;;10.04;100.00;98446.48;1700653;84;20728;-71
2021/05/07 21:56:42;;;;;;;;;;;;;;;10.02;100.00;98441.94;1683313;84;20633;-72
2021/05/07 21:59:09;;;;;;;;;;;;;;;10.00;100.00;98441.41;1700668;84;21274;-71
2021/05/07 22:01:38;;;;;;;;;;;;;;;10.00;100.00;98440.06;1670369;84;20155;-72
2021/05/07 22:04:07;;;;;;;;;;;;;;;9.97;100.00;98440.63;1731283;83;20292;-71
2021/05/07 22:06:36;;;;;;;;;;;;;;;9.96;100.00;98448.39;1728216;81;20677;-70
2021/05/07 22:09:04;;;;;;;;;;;;;;;9.95;100.00;98441.44;1664391;86;20243;-71
2021/05/07 22:11:32;;;;;;;;;;;;;;;9.96;100.00;98447.59;1671003;86;21371;-71